sensor_id;sensor_type;location;lat;lon;timestamp;P1;durP1;ratioP1;P2;durP2;ratioP2
966;SDS011;56108;48.730;9.304;2023-06-14T00:00:25;3.63;;;3.25;;
966;SDS011;56108;48.730;9.304;2023-06-14T00:02:33;6.00;;;4.18;;
966;SDS011;56108;48.730;9.304;2023-06-14T00:04:41;4.88;;;3.17;;
966;SDS011;56108;48.730;9.304;2023-06-14T00:06:50;3.70;;;2.72;;
966;SDS011;56108;48.730;9.304;2023-06-14T00:08:58;4.32;;;3.75;;
966;SDS011;56108;48.730;9.304;2023-06-14T00:11:06;3.63;;;3.05;;
966;SDS011;56108;48.730;9.304;2023-06-14T00:13:17;3.97;;;3.20;;
966;SDS011;56108;48.730;9.304;2023-06-14T00:15:25;3.85;;;2.63;;
966;SDS011;56108;48.730;9.304;2023-06-14T00:17:35;3.42;;;2.75;;
966;SDS011;56108;48.730;9.304;2023-06-14T00:19:44;5.97;;;3.72;;
966;SDS011;56108;48.730;9.304;2023-06-14T00:21:52;2.88;;;2.55;;
966;SDS011;56108;48.730;9.304;2023-06-14T00:24:01;3.85;;;2.70;;
966;SDS011;56108;48.730;9.304;2023-06-14T00:26:10;3.22;;;2.90;;
966;SDS011;56108;48.730;9.304;2023-06-14T00:28:22;4.57;;;2.90;;
966;SDS011;56108;48.730;9.304;2023-06-14T00:30:31;3.38;;;3.10;;
966;SDS011;56108;48.730;9.304;2023-06-14T00:32:39;3.13;;;2.83;;
966;SDS011;56108;48.730;9.304;2023-06-14T00:34:48;4.03;;;3.05;;
966;SDS011;56108;48.730;9.304;2023-06-14T00:36:56;4.35;;;3.10;;
966;SDS011;56108;48.730;9.304;2023-06-14T00:39:04;3.58;;;3.28;;
966;SDS011;56108;48.730;9.304;2023-06-14T00:41:12;3.40;;;2.72;;
966;SDS011;56108;48.730;9.304;2023-06-14T00:43:23;3.03;;;2.70;;
966;SDS011;56108;48.730;9.304;2023-06-14T00:45:31;3.28;;;2.97;;
966;SDS011;56108;48.730;9.304;2023-06-14T00:47:43;3.50;;;2.90;;
966;SDS011;56108;48.730;9.304;2023-06-14T00:49:53;3.13;;;2.72;;
966;SDS011;56108;48.730;9.304;2023-06-14T00:52:02;2.38;;;2.20;;
966;SDS011;56108;48.730;9.304;2023-06-14T00:54:12;3.40;;;2.67;;
966;SDS011;56108;48.730;9.304;2023-06-14T00:56:21;3.15;;;2.50;;
966;SDS011;56108;48.730;9.304;2023-06-14T00:58:32;5.72;;;3.13;;
966;SDS011;56108;48.730;9.304;2023-06-14T01:00:41;3.92;;;3.35;;
966;SDS011;56108;48.730;9.304;2023-06-14T01:02:50;3.78;;;2.90;;
966;SDS011;56108;48.730;9.304;2023-06-14T01:04:58;4.70;;;3.40;;
966;SDS011;56108;48.730;9.304;2023-06-14T01:07:09;3.55;;;3.03;;
966;SDS011;56108;48.730;9.304;2023-06-14T01:09:36;6.28;;;3.40;;
966;SDS011;56108;48.730;9.304;2023-06-14T01:11:54;2.80;;;2.42;;
966;SDS011;56108;48.730;9.304;2023-06-14T01:14:12;3.03;;;2.45;;
966;SDS011;56108;48.730;9.304;2023-06-14T01:16:23;3.38;;;3.08;;
966;SDS011;56108;48.730;9.304;2023-06-14T01:18:33;3.75;;;2.92;;
966;SDS011;56108;48.730;9.304;2023-06-14T01:20:56;2.70;;;2.08;;
966;SDS011;56108;48.730;9.304;2023-06-14T01:23:07;3.92;;;2.85;;
966;SDS011;56108;48.730;9.304;2023-06-14T01:25:17;3.42;;;3.05;;
966;SDS011;56108;48.730;9.304;2023-06-14T01:27:27;4.65;;;2.95;;
966;SDS011;56108;48.730;9.304;2023-06-14T01:29:37;3.47;;;3.00;;
966;SDS011;56108;48.730;9.304;2023-06-14T01:31:52;3.58;;;2.95;;
966;SDS011;56108;48.730;9.304;2023-06-14T01:34:01;3.05;;;2.75;;
966;SDS011;56108;48.730;9.304;2023-06-14T01:36:09;3.63;;;2.17;;
966;SDS011;56108;48.730;9.304;2023-06-14T01:38:20;3.58;;;3.10;;
966;SDS011;56108;48.730;9.304;2023-06-14T01:40:30;2.90;;;2.70;;
966;SDS011;56108;48.730;9.304;2023-06-14T01:42:41;2.70;;;2.50;;
966;SDS011;56108;48.730;9.304;2023-06-14T01:44:50;3.63;;;3.33;;
966;SDS011;56108;48.730;9.304;2023-06-14T01:47:00;2.75;;;2.05;;
966;SDS011;56108;48.730;9.304;2023-06-14T01:49:08;2.45;;;2.25;;
966;SDS011;56108;48.730;9.304;2023-06-14T01:51:16;2.42;;;2.22;;
966;SDS011;56108;48.730;9.304;2023-06-14T01:53:28;4.22;;;2.80;;
966;SDS011;56108;48.730;9.304;2023-06-14T01:55:36;3.08;;;2.75;;
966;SDS011;56108;48.730;9.304;2023-06-14T01:57:48;2.95;;;2.70;;
966;SDS011;56108;48.730;9.304;2023-06-14T01:59:56;2.70;;;2.50;;
966;SDS011;56108;48.730;9.304;2023-06-14T02:02:04;3.25;;;2.95;;
966;SDS011;56108;48.730;9.304;2023-06-14T02:04:12;3.88;;;3.17;;
966;SDS011;56108;48.730;9.304;2023-06-14T02:06:20;2.72;;;2.45;;
966;SDS011;56108;48.730;9.304;2023-06-14T02:08:31;3.33;;;3.00;;
966;SDS011;56108;48.730;9.304;2023-06-14T02:10:39;3.58;;;3.28;;
966;SDS011;56108;48.730;9.304;2023-06-14T02:12:47;2.58;;;2.25;;
966;SDS011;56108;48.730;9.304;2023-06-14T02:14:55;3.00;;;2.80;;
966;SDS011;56108;48.730;9.304;2023-06-14T02:17:04;4.07;;;3.00;;
966;SDS011;56108;48.730;9.304;2023-06-14T02:19:12;3.85;;;3.53;;
966;SDS011;56108;48.730;9.304;2023-06-14T02:21:21;4.38;;;3.13;;
966;SDS011;56108;48.730;9.304;2023-06-14T02:23:31;5.18;;;3.00;;
966;SDS011;56108;48.730;9.304;2023-06-14T02:25:39;3.00;;;2.63;;
966;SDS011;56108;48.730;9.304;2023-06-14T02:27:49;4.18;;;2.53;;
966;SDS011;56108;48.730;9.304;2023-06-14T02:29:57;3.30;;;2.92;;
966;SDS011;56108;48.730;9.304;2023-06-14T02:32:06;2.78;;;2.47;;
966;SDS011;56108;48.730;9.304;2023-06-14T02:34:16;3.40;;;3.08;;
966;SDS011;56108;48.730;9.304;2023-06-14T02:36:25;2.65;;;2.45;;
966;SDS011;56108;48.730;9.304;2023-06-14T02:38:39;3.28;;;3.08;;
966;SDS011;56108;48.730;9.304;2023-06-14T02:40:47;3.53;;;3.22;;
966;SDS011;56108;48.730;9.304;2023-06-14T02:42:55;3.17;;;2.97;;
966;SDS011;56108;48.730;9.304;2023-06-14T02:45:03;3.90;;;2.63;;
966;SDS011;56108;48.730;9.304;2023-06-14T02:47:12;2.92;;;2.72;;
966;SDS011;56108;48.730;9.304;2023-06-14T02:49:21;3.10;;;2.80;;
966;SDS011;56108;48.730;9.304;2023-06-14T02:51:29;3.20;;;2.90;;
966;SDS011;56108;48.730;9.304;2023-06-14T02:53:40;3.58;;;3.10;;
966;SDS011;56108;48.730;9.304;2023-06-14T02:55:48;2.88;;;2.67;;
966;SDS011;56108;48.730;9.304;2023-06-14T02:57:58;3.25;;;2.95;;
966;SDS011;56108;48.730;9.304;2023-06-14T03:00:07;2.70;;;2.50;;
966;SDS011;56108;48.730;9.304;2023-06-14T03:02:24;4.15;;;3.15;;
966;SDS011;56108;48.730;9.304;2023-06-14T03:04:32;3.97;;;3.60;;
966;SDS011;56108;48.730;9.304;2023-06-14T03:06:49;3.88;;;3.50;;
966;SDS011;56108;48.730;9.304;2023-06-14T03:09:02;3.55;;;3.25;;
966;SDS011;56108;48.730;9.304;2023-06-14T03:11:16;4.30;;;3.08;;
966;SDS011;56108;48.730;9.304;2023-06-14T03:13:26;3.05;;;2.75;;
966;SDS011;56108;48.730;9.304;2023-06-14T03:15:37;4.18;;;2.97;;
966;SDS011;56108;48.730;9.304;2023-06-14T03:17:46;3.35;;;3.05;;
966;SDS011;56108;48.730;9.304;2023-06-14T03:19:55;3.75;;;2.85;;
966;SDS011;56108;48.730;9.304;2023-06-14T03:22:04;3.05;;;2.75;;
966;SDS011;56108;48.730;9.304;2023-06-14T03:24:18;2.85;;;2.65;;
966;SDS011;56108;48.730;9.304;2023-06-14T03:26:26;2.90;;;2.70;;
966;SDS011;56108;48.730;9.304;2023-06-14T03:28:36;2.65;;;2.45;;
966;SDS011;56108;48.730;9.304;2023-06-14T03:30:44;4.57;;;3.42;;
966;SDS011;56108;48.730;9.304;2023-06-14T03:32:53;4.28;;;3.35;;
966;SDS011;56108;48.730;9.304;2023-06-14T03:35:05;3.92;;;3.25;;
966;SDS011;56108;48.730;9.304;2023-06-14T03:37:15;3.22;;;2.35;;
966;SDS011;56108;48.730;9.304;2023-06-14T03:39:30;3.92;;;3.63;;
966;SDS011;56108;48.730;9.304;2023-06-14T03:41:38;5.68;;;2.80;;
966;SDS011;56108;48.730;9.304;2023-06-14T03:43:46;4.55;;;3.90;;
966;SDS011;56108;48.730;9.304;2023-06-14T03:45:54;3.92;;;3.42;;
966;SDS011;56108;48.730;9.304;2023-06-14T03:48:03;3.63;;;3.33;;
966;SDS011;56108;48.730;9.304;2023-06-14T03:50:14;5.15;;;4.15;;
966;SDS011;56108;48.730;9.304;2023-06-14T03:52:22;4.43;;;3.35;;
966;SDS011;56108;48.730;9.304;2023-06-14T03:54:33;4.55;;;3.75;;
966;SDS011;56108;48.730;9.304;2023-06-14T03:56:44;4.65;;;4.05;;
966;SDS011;56108;48.730;9.304;2023-06-14T03:58:52;3.88;;;3.50;;
966;SDS011;56108;48.730;9.304;2023-06-14T04:01:03;3.60;;;3.30;;
966;SDS011;56108;48.730;9.304;2023-06-14T04:03:11;5.50;;;3.85;;
966;SDS011;56108;48.730;9.304;2023-06-14T04:05:20;3.85;;;3.50;;
966;SDS011;56108;48.730;9.304;2023-06-14T04:07:33;5.20;;;3.95;;
966;SDS011;56108;48.730;9.304;2023-06-14T04:09:48;5.03;;;3.30;;
966;SDS011;56108;48.730;9.304;2023-06-14T04:11:56;3.97;;;3.65;;
966;SDS011;56108;48.730;9.304;2023-06-14T04:14:05;4.28;;;3.63;;
966;SDS011;56108;48.730;9.304;2023-06-14T04:16:13;4.22;;;3.83;;
966;SDS011;56108;48.730;9.304;2023-06-14T04:18:21;3.70;;;3.40;;
966;SDS011;56108;48.730;9.304;2023-06-14T04:20:30;4.78;;;4.35;;
966;SDS011;56108;48.730;9.304;2023-06-14T04:22:38;4.70;;;3.70;;
966;SDS011;56108;48.730;9.304;2023-06-14T04:24:51;4.50;;;4.10;;
966;SDS011;56108;48.730;9.304;2023-06-14T04:27:09;4.43;;;4.03;;
966;SDS011;56108;48.730;9.304;2023-06-14T04:29:18;4.85;;;4.35;;
966;SDS011;56108;48.730;9.304;2023-06-14T04:31:35;7.22;;;4.80;;
966;SDS011;56108;48.730;9.304;2023-06-14T04:33:46;5.10;;;4.60;;
966;SDS011;56108;48.730;9.304;2023-06-14T04:35:58;5.87;;;5.00;;
966;SDS011;56108;48.730;9.304;2023-06-14T04:38:06;6.07;;;4.57;;
966;SDS011;56108;48.730;9.304;2023-06-14T04:40:18;4.90;;;4.40;;
966;SDS011;56108;48.730;9.304;2023-06-14T04:42:26;4.40;;;4.00;;
966;SDS011;56108;48.730;9.304;2023-06-14T04:44:37;6.30;;;5.27;;
966;SDS011;56108;48.730;9.304;2023-06-14T04:46:45;6.10;;;5.20;;
966;SDS011;56108;48.730;9.304;2023-06-14T04:48:58;4.80;;;4.40;;
966;SDS011;56108;48.730;9.304;2023-06-14T04:51:08;4.73;;;4.30;;
966;SDS011;56108;48.730;9.304;2023-06-14T04:53:18;5.90;;;4.40;;
966;SDS011;56108;48.730;9.304;2023-06-14T04:55:34;4.93;;;4.53;;
966;SDS011;56108;48.730;9.304;2023-06-14T04:57:43;5.97;;;5.37;;
966;SDS011;56108;48.730;9.304;2023-06-14T04:59:52;5.63;;;5.07;;
966;SDS011;56108;48.730;9.304;2023-06-14T05:02:03;5.67;;;5.07;;
966;SDS011;56108;48.730;9.304;2023-06-14T05:04:11;5.40;;;4.80;;
966;SDS011;56108;48.730;9.304;2023-06-14T05:06:19;7.13;;;6.27;;
966;SDS011;56108;48.730;9.304;2023-06-14T05:08:27;5.90;;;5.30;;
966;SDS011;56108;48.730;9.304;2023-06-14T05:10:38;5.67;;;5.07;;
966;SDS011;56108;48.730;9.304;2023-06-14T05:12:46;6.50;;;5.90;;
966;SDS011;56108;48.730;9.304;2023-06-14T05:14:56;8.47;;;5.90;;
966;SDS011;56108;48.730;9.304;2023-06-14T05:17:05;5.53;;;4.93;;
966;SDS011;56108;48.730;9.304;2023-06-14T05:19:14;8.53;;;5.07;;
966;SDS011;56108;48.730;9.304;2023-06-14T05:21:23;6.57;;;5.97;;
966;SDS011;56108;48.730;9.304;2023-06-14T05:23:31;5.87;;;5.37;;
966;SDS011;56108;48.730;9.304;2023-06-14T05:25:41;6.53;;;5.90;;
966;SDS011;56108;48.730;9.304;2023-06-14T05:27:50;6.93;;;5.40;;
966;SDS011;56108;48.730;9.304;2023-06-14T05:29:58;6.37;;;5.73;;
966;SDS011;56108;48.730;9.304;2023-06-14T05:32:06;5.10;;;4.53;;
966;SDS011;56108;48.730;9.304;2023-06-14T05:34:15;6.73;;;6.13;;
966;SDS011;56108;48.730;9.304;2023-06-14T05:36:23;6.83;;;6.20;;
966;SDS011;56108;48.730;9.304;2023-06-14T05:38:32;6.13;;;5.53;;
966;SDS011;56108;48.730;9.304;2023-06-14T05:40:43;6.17;;;5.57;;
966;SDS011;56108;48.730;9.304;2023-06-14T05:42:51;6.70;;;5.90;;
966;SDS011;56108;48.730;9.304;2023-06-14T05:44:59;6.13;;;5.63;;
966;SDS011;56108;48.730;9.304;2023-06-14T05:47:07;6.33;;;5.73;;
966;SDS011;56108;48.730;9.304;2023-06-14T05:49:16;6.10;;;5.50;;
966;SDS011;56108;48.730;9.304;2023-06-14T05:51:24;7.27;;;6.47;;
966;SDS011;56108;48.730;9.304;2023-06-14T05:53:32;5.60;;;5.10;;
966;SDS011;56108;48.730;9.304;2023-06-14T05:55:43;6.53;;;5.87;;
966;SDS011;56108;48.730;9.304;2023-06-14T05:57:51;7.40;;;6.63;;
966;SDS011;56108;48.730;9.304;2023-06-14T05:59:59;7.73;;;6.57;;
966;SDS011;56108;48.730;9.304;2023-06-14T06:02:15;6.93;;;6.23;;
966;SDS011;56108;48.730;9.304;2023-06-14T06:04:23;6.47;;;5.87;;
966;SDS011;56108;48.730;9.304;2023-06-14T06:06:32;6.47;;;5.73;;
966;SDS011;56108;48.730;9.304;2023-06-14T06:08:40;8.50;;;5.37;;
966;SDS011;56108;48.730;9.304;2023-06-14T06:10:51;6.43;;;5.80;;
966;SDS011;56108;48.730;9.304;2023-06-14T06:12:59;6.77;;;6.10;;
966;SDS011;56108;48.730;9.304;2023-06-14T06:15:07;5.77;;;5.27;;
966;SDS011;56108;48.730;9.304;2023-06-14T06:17:17;7.37;;;5.90;;
966;SDS011;56108;48.730;9.304;2023-06-14T06:19:25;6.27;;;5.67;;
966;SDS011;56108;48.730;9.304;2023-06-14T06:21:33;6.73;;;5.70;;
966;SDS011;56108;48.730;9.304;2023-06-14T06:23:41;4.23;;;3.83;;
966;SDS011;56108;48.730;9.304;2023-06-14T06:25:53;6.23;;;5.47;;
966;SDS011;56108;48.730;9.304;2023-06-14T06:28:01;4.73;;;4.33;;
966;SDS011;56108;48.730;9.304;2023-06-14T06:30:10;5.03;;;4.53;;
966;SDS011;56108;48.730;9.304;2023-06-14T06:32:24;5.00;;;4.50;;
966;SDS011;56108;48.730;9.304;2023-06-14T06:34:39;4.80;;;4.10;;
966;SDS011;56108;48.730;9.304;2023-06-14T06:36:49;5.70;;;4.73;;
966;SDS011;56108;48.730;9.304;2023-06-14T06:38:57;4.57;;;4.17;;
966;SDS011;56108;48.730;9.304;2023-06-14T06:41:08;3.93;;;3.63;;
966;SDS011;56108;48.730;9.304;2023-06-14T06:43:16;9.67;;;4.30;;
966;SDS011;56108;48.730;9.304;2023-06-14T06:45:25;4.77;;;4.27;;
966;SDS011;56108;48.730;9.304;2023-06-14T06:47:34;4.20;;;3.80;;
966;SDS011;56108;48.730;9.304;2023-06-14T06:49:42;4.03;;;3.67;;
966;SDS011;56108;48.730;9.304;2023-06-14T06:51:59;4.50;;;4.10;;
966;SDS011;56108;48.730;9.304;2023-06-14T06:54:08;4.47;;;4.07;;
966;SDS011;56108;48.730;9.304;2023-06-14T06:56:19;3.60;;;3.30;;
966;SDS011;56108;48.730;9.304;2023-06-14T06:58:27;4.40;;;4.00;;
966;SDS011;56108;48.730;9.304;2023-06-14T07:00:35;3.77;;;3.43;;
966;SDS011;56108;48.730;9.304;2023-06-14T07:02:44;3.97;;;3.67;;
966;SDS011;56108;48.730;9.304;2023-06-14T07:04:54;5.60;;;4.73;;
966;SDS011;56108;48.730;9.304;2023-06-14T07:07:02;4.13;;;3.83;;
966;SDS011;56108;48.730;9.304;2023-06-14T07:09:11;3.87;;;3.57;;
966;SDS011;56108;48.730;9.304;2023-06-14T07:11:23;3.97;;;3.40;;
966;SDS011;56108;48.730;9.304;2023-06-14T07:13:31;3.73;;;3.43;;
966;SDS011;56108;48.730;9.304;2023-06-14T07:15:39;4.00;;;3.70;;
966;SDS011;56108;48.730;9.304;2023-06-14T07:17:47;5.23;;;4.10;;
966;SDS011;56108;48.730;9.304;2023-06-14T07:19:56;4.03;;;3.53;;
966;SDS011;56108;48.730;9.304;2023-06-14T07:22:05;5.00;;;4.30;;
966;SDS011;56108;48.730;9.304;2023-06-14T07:24:13;3.73;;;3.43;;
966;SDS011;56108;48.730;9.304;2023-06-14T07:26:24;4.33;;;3.80;;
966;SDS011;56108;48.730;9.304;2023-06-14T07:28:32;4.00;;;3.70;;
966;SDS011;56108;48.730;9.304;2023-06-14T07:30:43;4.90;;;4.40;;
966;SDS011;56108;48.730;9.304;2023-06-14T07:32:54;3.70;;;3.40;;
966;SDS011;56108;48.730;9.304;2023-06-14T07:35:02;3.70;;;3.40;;
966;SDS011;56108;48.730;9.304;2023-06-14T07:37:11;3.50;;;3.20;;
966;SDS011;56108;48.730;9.304;2023-06-14T07:39:19;3.27;;;3.03;;
966;SDS011;56108;48.730;9.304;2023-06-14T07:41:30;4.07;;;3.47;;
966;SDS011;56108;48.730;9.304;2023-06-14T07:43:39;3.87;;;3.47;;
966;SDS011;56108;48.730;9.304;2023-06-14T07:45:47;3.80;;;3.47;;
966;SDS011;56108;48.730;9.304;2023-06-14T07:48:10;3.43;;;3.13;;
966;SDS011;56108;48.730;9.304;2023-06-14T07:50:19;3.77;;;3.47;;
966;SDS011;56108;48.730;9.304;2023-06-14T07:52:28;3.90;;;3.60;;
966;SDS011;56108;48.730;9.304;2023-06-14T07:54:36;3.90;;;3.60;;
966;SDS011;56108;48.730;9.304;2023-06-14T07:56:48;3.60;;;3.30;;
966;SDS011;56108;48.730;9.304;2023-06-14T07:58:57;4.53;;;4.13;;
966;SDS011;56108;48.730;9.304;2023-06-14T08:01:05;4.47;;;3.90;;
966;SDS011;56108;48.730;9.304;2023-06-14T08:03:13;3.20;;;3.00;;
966;SDS011;56108;48.730;9.304;2023-06-14T08:05:21;3.73;;;3.43;;
966;SDS011;56108;48.730;9.304;2023-06-14T08:07:30;3.63;;;3.37;;
966;SDS011;56108;48.730;9.304;2023-06-14T08:09:38;5.60;;;3.33;;
966;SDS011;56108;48.730;9.304;2023-06-14T08:11:49;4.00;;;3.70;;
966;SDS011;56108;48.730;9.304;2023-06-14T08:13:57;4.07;;;3.77;;
966;SDS011;56108;48.730;9.304;2023-06-14T08:16:05;3.50;;;3.20;;
966;SDS011;56108;48.730;9.304;2023-06-14T08:18:14;3.40;;;3.10;;
966;SDS011;56108;48.730;9.304;2023-06-14T08:20:22;4.57;;;3.80;;
966;SDS011;56108;48.730;9.304;2023-06-14T08:22:30;3.93;;;3.63;;
966;SDS011;56108;48.730;9.304;2023-06-14T08:24:38;3.70;;;3.40;;
966;SDS011;56108;48.730;9.304;2023-06-14T08:26:49;3.97;;;3.60;;
966;SDS011;56108;48.730;9.304;2023-06-14T08:28:57;3.40;;;3.10;;
966;SDS011;56108;48.730;9.304;2023-06-14T08:31:05;4.17;;;3.63;;
966;SDS011;56108;48.730;9.304;2023-06-14T08:33:16;3.83;;;3.47;;
966;SDS011;56108;48.730;9.304;2023-06-14T08:35:24;4.37;;;4.07;;
966;SDS011;56108;48.730;9.304;2023-06-14T08:37:32;4.13;;;3.83;;
966;SDS011;56108;48.730;9.304;2023-06-14T08:39:41;4.70;;;4.30;;
966;SDS011;56108;48.730;9.304;2023-06-14T08:41:52;4.33;;;3.93;;
966;SDS011;56108;48.730;9.304;2023-06-14T08:44:02;3.87;;;3.57;;
966;SDS011;56108;48.730;9.304;2023-06-14T08:46:12;4.53;;;4.13;;
966;SDS011;56108;48.730;9.304;2023-06-14T08:48:25;4.83;;;4.33;;
966;SDS011;56108;48.730;9.304;2023-06-14T08:50:33;3.47;;;3.27;;
966;SDS011;56108;48.730;9.304;2023-06-14T08:52:44;3.53;;;3.23;;
966;SDS011;56108;48.730;9.304;2023-06-14T08:54:57;4.20;;;3.60;;
966;SDS011;56108;48.730;9.304;2023-06-14T08:57:09;3.83;;;3.53;;
966;SDS011;56108;48.730;9.304;2023-06-14T08:59:21;4.37;;;3.97;;
966;SDS011;56108;48.730;9.304;2023-06-14T09:01:30;4.00;;;3.60;;
966;SDS011;56108;48.730;9.304;2023-06-14T09:03:41;4.63;;;3.87;;
966;SDS011;56108;48.730;9.304;2023-06-14T09:05:49;4.30;;;3.90;;
966;SDS011;56108;48.730;9.304;2023-06-14T09:07:59;4.70;;;3.80;;
966;SDS011;56108;48.730;9.304;2023-06-14T09:10:11;4.30;;;3.63;;
966;SDS011;56108;48.730;9.304;2023-06-14T09:12:23;5.00;;;4.37;;
966;SDS011;56108;48.730;9.304;2023-06-14T09:14:30;4.63;;;3.70;;
966;SDS011;56108;48.730;9.304;2023-06-14T09:16:43;4.13;;;3.73;;
966;SDS011;56108;48.730;9.304;2023-06-14T09:18:51;4.13;;;3.83;;
966;SDS011;56108;48.730;9.304;2023-06-14T09:21:02;4.80;;;4.27;;
966;SDS011;56108;48.730;9.304;2023-06-14T09:23:11;4.67;;;4.07;;
966;SDS011;56108;48.730;9.304;2023-06-14T09:25:19;4.00;;;3.70;;
966;SDS011;56108;48.730;9.304;2023-06-14T09:27:45;4.60;;;3.90;;
966;SDS011;56108;48.730;9.304;2023-06-14T09:29:54;4.03;;;3.50;;
966;SDS011;56108;48.730;9.304;2023-06-14T09:32:03;3.70;;;3.40;;
966;SDS011;56108;48.730;9.304;2023-06-14T09:34:12;3.53;;;3.23;;
966;SDS011;56108;48.730;9.304;2023-06-14T09:36:21;4.73;;;4.27;;
966;SDS011;56108;48.730;9.304;2023-06-14T09:38:30;4.20;;;3.80;;
966;SDS011;56108;48.730;9.304;2023-06-14T09:40:38;5.07;;;4.40;;
966;SDS011;56108;48.730;9.304;2023-06-14T09:42:49;3.83;;;3.47;;
966;SDS011;56108;48.730;9.304;2023-06-14T09:44:59;4.33;;;3.93;;
966;SDS011;56108;48.730;9.304;2023-06-14T09:47:08;3.83;;;3.53;;
966;SDS011;56108;48.730;9.304;2023-06-14T09:49:18;4.20;;;3.60;;
966;SDS011;56108;48.730;9.304;2023-06-14T09:51:27;3.77;;;3.10;;
966;SDS011;56108;48.730;9.304;2023-06-14T09:53:36;6.50;;;4.03;;
966;SDS011;56108;48.730;9.304;2023-06-14T09:55:44;3.50;;;3.30;;
966;SDS011;56108;48.730;9.304;2023-06-14T09:57:56;3.43;;;3.23;;
966;SDS011;56108;48.730;9.304;2023-06-14T10:00:08;3.87;;;3.43;;
966;SDS011;56108;48.730;9.304;2023-06-14T10:02:20;7.00;;;4.33;;
966;SDS011;56108;48.730;9.304;2023-06-14T10:04:32;3.60;;;3.30;;
966;SDS011;56108;48.730;9.304;2023-06-14T10:06:43;5.00;;;4.00;;
966;SDS011;56108;48.730;9.304;2023-06-14T10:08:54;4.13;;;3.83;;
966;SDS011;56108;48.730;9.304;2023-06-14T10:11:04;4.37;;;4.07;;
966;SDS011;56108;48.730;9.304;2023-06-14T10:13:17;4.70;;;4.30;;
966;SDS011;56108;48.730;9.304;2023-06-14T10:15:28;3.70;;;3.40;;
966;SDS011;56108;48.730;9.304;2023-06-14T10:17:43;2.90;;;2.60;;
966;SDS011;56108;48.730;9.304;2023-06-14T10:20:03;3.77;;;3.47;;
966;SDS011;56108;48.730;9.304;2023-06-14T10:22:25;3.40;;;3.20;;
966;SDS011;56108;48.730;9.304;2023-06-14T10:24:40;4.20;;;3.80;;
966;SDS011;56108;48.730;9.304;2023-06-14T10:26:50;4.63;;;4.10;;
966;SDS011;56108;48.730;9.304;2023-06-14T10:29:09;4.10;;;3.30;;
966;SDS011;56108;48.730;9.304;2023-06-14T10:31:17;4.20;;;3.80;;
966;SDS011;56108;48.730;9.304;2023-06-14T10:33:25;4.53;;;4.00;;
966;SDS011;56108;48.730;9.304;2023-06-14T10:35:34;3.70;;;3.40;;
966;SDS011;56108;48.730;9.304;2023-06-14T10:37:42;4.43;;;4.03;;
966;SDS011;56108;48.730;9.304;2023-06-14T10:39:54;4.03;;;3.50;;
966;SDS011;56108;48.730;9.304;2023-06-14T10:42:02;4.13;;;3.73;;
966;SDS011;56108;48.730;9.304;2023-06-14T10:46:45;3.80;;;3.43;;
966;SDS011;56108;48.730;9.304;2023-06-14T10:48:56;4.37;;;3.47;;
966;SDS011;56108;48.730;9.304;2023-06-14T10:51:13;4.00;;;3.30;;
966;SDS011;56108;48.730;9.304;2023-06-14T10:53:24;4.00;;;3.50;;
966;SDS011;56108;48.730;9.304;2023-06-14T10:55:34;4.23;;;3.60;;
966;SDS011;56108;48.730;9.304;2023-06-14T10:57:44;3.70;;;3.40;;
966;SDS011;56108;48.730;9.304;2023-06-14T11:00:00;3.70;;;3.37;;
966;SDS011;56108;48.730;9.304;2023-06-14T11:02:20;3.90;;;3.50;;
966;SDS011;56108;48.730;9.304;2023-06-14T11:04:51;3.57;;;3.37;;
966;SDS011;56108;48.730;9.304;2023-06-14T11:07:08;3.87;;;3.40;;
966;SDS011;56108;48.730;9.304;2023-06-14T11:09:43;4.10;;;3.70;;
966;SDS011;56108;48.730;9.304;2023-06-14T11:12:13;3.80;;;3.40;;
966;SDS011;56108;48.730;9.304;2023-06-14T11:14:23;3.60;;;3.30;;
966;SDS011;56108;48.730;9.304;2023-06-14T11:16:33;4.30;;;3.90;;
966;SDS011;56108;48.730;9.304;2023-06-14T11:18:42;4.07;;;3.67;;
966;SDS011;56108;48.730;9.304;2023-06-14T11:20:51;4.10;;;3.80;;
966;SDS011;56108;48.730;9.304;2023-06-14T11:22:59;4.00;;;3.70;;
966;SDS011;56108;48.730;9.304;2023-06-14T11:25:08;4.83;;;3.13;;
966;SDS011;56108;48.730;9.304;2023-06-14T11:27:17;4.07;;;3.57;;
966;SDS011;56108;48.730;9.304;2023-06-14T11:29:25;4.40;;;4.00;;
966;SDS011;56108;48.730;9.304;2023-06-14T11:31:42;3.90;;;3.60;;
966;SDS011;56108;48.730;9.304;2023-06-14T11:33:51;3.80;;;3.50;;
966;SDS011;56108;48.730;9.304;2023-06-14T11:36:02;4.30;;;3.70;;
966;SDS011;56108;48.730;9.304;2023-06-14T11:38:13;3.90;;;3.50;;
966;SDS011;56108;48.730;9.304;2023-06-14T11:40:22;4.13;;;3.57;;
966;SDS011;56108;48.730;9.304;2023-06-14T11:42:32;3.53;;;3.23;;
966;SDS011;56108;48.730;9.304;2023-06-14T11:44:40;4.13;;;3.83;;
966;SDS011;56108;48.730;9.304;2023-06-14T11:46:51;3.23;;;3.03;;
966;SDS011;56108;48.730;9.304;2023-06-14T11:49:01;3.43;;;3.17;;
966;SDS011;56108;48.730;9.304;2023-06-14T11:51:12;4.03;;;3.67;;
966;SDS011;56108;48.730;9.304;2023-06-14T11:53:20;3.47;;;3.17;;
966;SDS011;56108;48.730;9.304;2023-06-14T11:55:28;4.20;;;3.77;;
966;SDS011;56108;48.730;9.304;2023-06-14T11:57:36;5.10;;;3.83;;
966;SDS011;56108;48.730;9.304;2023-06-14T11:59:44;4.50;;;4.00;;
966;SDS011;56108;48.730;9.304;2023-06-14T12:01:56;3.90;;;3.50;;
966;SDS011;56108;48.730;9.304;2023-06-14T12:04:04;3.60;;;3.30;;
966;SDS011;56108;48.730;9.304;2023-06-14T12:06:13;4.03;;;3.73;;
966;SDS011;56108;48.730;9.304;2023-06-14T12:08:22;5.30;;;3.47;;
966;SDS011;56108;48.730;9.304;2023-06-14T12:10:43;3.13;;;2.90;;
966;SDS011;56108;48.730;9.304;2023-06-14T12:12:56;3.70;;;3.40;;
966;SDS011;56108;48.730;9.304;2023-06-14T12:15:05;3.53;;;3.20;;
966;SDS011;56108;48.730;9.304;2023-06-14T12:17:19;3.10;;;2.90;;
966;SDS011;56108;48.730;9.304;2023-06-14T12:19:27;3.50;;;3.20;;
966;SDS011;56108;48.730;9.304;2023-06-14T12:21:36;4.13;;;3.07;;
966;SDS011;56108;48.730;9.304;2023-06-14T12:23:47;4.63;;;3.00;;
966;SDS011;56108;48.730;9.304;2023-06-14T12:25:56;6.50;;;3.33;;
966;SDS011;56108;48.730;9.304;2023-06-14T12:28:07;3.97;;;3.33;;
966;SDS011;56108;48.730;9.304;2023-06-14T12:30:17;4.00;;;3.50;;
966;SDS011;56108;48.730;9.304;2023-06-14T12:32:27;5.17;;;3.50;;
966;SDS011;56108;48.730;9.304;2023-06-14T12:34:36;3.50;;;3.20;;
966;SDS011;56108;48.730;9.304;2023-06-14T12:36:44;3.67;;;3.30;;
966;SDS011;56108;48.730;9.304;2023-06-14T12:38:52;6.40;;;3.40;;
966;SDS011;56108;48.730;9.304;2023-06-14T12:41:00;3.60;;;3.28;;
966;SDS011;56108;48.730;9.304;2023-06-14T12:43:08;3.75;;;3.45;;
966;SDS011;56108;48.730;9.304;2023-06-14T12:45:16;3.80;;;3.33;;
966;SDS011;56108;48.730;9.304;2023-06-14T12:47:27;3.72;;;3.13;;
966;SDS011;56108;48.730;9.304;2023-06-14T12:49:35;3.53;;;3.23;;
966;SDS011;56108;48.730;9.304;2023-06-14T12:51:43;3.90;;;3.60;;
966;SDS011;56108;48.730;9.304;2023-06-14T12:53:52;4.07;;;3.10;;
966;SDS011;56108;48.730;9.304;2023-06-14T12:56:00;3.63;;;3.33;;
966;SDS011;56108;48.730;9.304;2023-06-14T12:58:08;3.20;;;2.90;;
966;SDS011;56108;48.730;9.304;2023-06-14T13:00:19;3.10;;;2.90;;
966;SDS011;56108;48.730;9.304;2023-06-14T13:02:33;4.03;;;3.73;;
966;SDS011;56108;48.730;9.304;2023-06-14T13:04:41;6.33;;;3.10;;
966;SDS011;56108;48.730;9.304;2023-06-14T13:06:50;3.47;;;3.20;;
966;SDS011;56108;48.730;9.304;2023-06-14T13:08:59;3.40;;;3.10;;
966;SDS011;56108;48.730;9.304;2023-06-14T13:11:09;3.50;;;3.20;;
966;SDS011;56108;48.730;9.304;2023-06-14T13:13:17;3.53;;;3.23;;
966;SDS011;56108;48.730;9.304;2023-06-14T13:15:27;3.50;;;3.20;;
966;SDS011;56108;48.730;9.304;2023-06-14T13:17:37;4.10;;;3.80;;
966;SDS011;56108;48.730;9.304;2023-06-14T13:19:46;4.00;;;3.70;;
966;SDS011;56108;48.730;9.304;2023-06-14T13:21:55;3.80;;;3.50;;
966;SDS011;56108;48.730;9.304;2023-06-14T13:24:03;3.63;;;3.33;;
966;SDS011;56108;48.730;9.304;2023-06-14T13:26:12;3.80;;;3.50;;
966;SDS011;56108;48.730;9.304;2023-06-14T13:28:21;4.53;;;3.83;;
966;SDS011;56108;48.730;9.304;2023-06-14T13:30:29;3.70;;;3.20;;